Time;durP1;ratioP1;P1;durP2;ratioP2;P2;SDS_P1;SDS_P2;PMS_P1;PMS_P2;Temp;Humidity;BMP_temperature;BMP_pressure;BME280_temperature;BME280_humidity;BME280_pressure;Samples;Min_cycle;Max_cycle;Signal;HPM_P1;HPM_P2
2022/11/05 00:10:37;;;;;;;32.95;19.75;;;4.60;99.90;;;;;;4997079;28;20080;-69
2022/11/05 00:18:34;;;;;;;33.83;21.10;;;4.60;99.90;;;;;;5060870;28;20038;-71
2022/11/05 00:21:00;;;;;;;37.08;21.58;;;4.60;99.90;;;;;;5043487;28;20028;-71
2022/11/05 00:26:11;;;;;;;31.05;19.67;;;4.70;99.90;;;;;;5068074;28;20127;-70
2022/11/05 00:28:39;;;;;;;34.92;21.92;;;4.80;99.90;;;;;;5049626;28;20029;-71
2022/11/05 00:31:10;;;;;;;34.05;21.02;;;4.80;99.90;;;;;;5051194;28;20032;-70
2022/11/05 00:33:41;;;;;;;33.30;20.80;;;4.80;99.90;;;;;;5068412;28;20190;-71
2022/11/05 00:36:08;;;;;;;34.97;21.60;;;4.80;99.90;;;;;;5066093;28;20036;-71
2022/11/05 00:38:34;;;;;;;30.33;20.00;;;4.80;99.90;;;;;;5050411;28;20071;-71
2022/11/05 00:41:00;;;;;;;33.08;19.45;;;4.90;99.90;;;;;;5063783;28;20043;-71
2022/11/05 00:46:10;;;;;;;31.80;20.13;;;4.80;99.90;;;;;;5061001;28;20071;-70
2022/11/05 00:51:20;;;;;;;36.03;21.27;;;4.90;99.90;;;;;;5066153;28;20110;-71
2022/11/05 00:53:46;;;;;;;32.13;19.63;;;4.90;99.90;;;;;;5065925;28;20069;-71
2022/11/05 00:56:11;;;;;;;34.05;21.73;;;4.90;99.90;;;;;;5066673;28;20036;-71
2022/11/05 00:58:37;;;;;;;34.35;21.35;;;4.90;99.90;;;;;;5062793;28;20068;-71
2022/11/05 01:01:03;;;;;;;29.63;19.27;;;4.90;99.90;;;;;;5060627;28;20402;-71
2022/11/05 01:03:32;;;;;;;31.45;19.65;;;4.90;99.90;;;;;;5066086;28;20021;-70
2022/11/05 01:06:06;;;;;;;33.75;20.92;;;5.00;99.90;;;;;;5065257;28;20039;-72
2022/11/05 01:08:32;;;;;;;31.63;20.88;;;5.00;99.90;;;;;;5059444;28;20040;-71
2022/11/05 01:10:58;;;;;;;34.53;22.05;;;5.10;99.90;;;;;;5067387;28;20031;-70
2022/11/05 01:13:27;;;;;;;32.05;20.20;;;5.10;99.90;;;;;;5066102;28;20039;-71
2022/11/05 01:15:53;;;;;;;37.25;21.13;;;5.10;99.90;;;;;;5064007;28;20036;-71
2022/11/05 01:18:20;;;;;;;29.98;18.98;;;5.00;99.90;;;;;;5046948;28;20032;-69
2022/11/05 01:20:46;;;;;;;32.00;19.52;;;5.10;99.90;;;;;;5065462;28;20097;-71
2022/11/05 01:23:12;;;;;;;31.70;19.98;;;5.10;99.90;;;;;;5048968;28;20036;-71
2022/11/05 01:25:37;;;;;;;28.80;17.48;;;5.10;99.90;;;;;;5063872;28;20032;-70
2022/11/05 01:28:03;;;;;;;35.63;20.23;;;5.10;99.90;;;;;;5067514;28;20448;-71
2022/11/05 01:30:30;;;;;;;30.73;20.23;;;5.10;99.90;;;;;;5049787;28;20028;-71
2022/11/05 01:32:56;;;;;;;37.78;21.52;;;5.10;99.90;;;;;;5049540;28;20379;-70
2022/11/05 01:35:22;;;;;;;36.28;23.02;;;5.10;99.90;;;;;;5065701;28;20493;-71
2022/11/05 01:37:47;;;;;;;33.63;21.70;;;5.10;99.90;;;;;;5065673;28;20033;-71
2022/11/05 01:40:16;;;;;;;32.13;21.85;;;5.10;99.90;;;;;;5066115;28;20043;-70
2022/11/05 01:42:42;;;;;;;31.65;18.85;;;5.10;99.90;;;;;;5067443;28;20067;-71
2022/11/05 01:45:14;;;;;;;32.17;18.95;;;5.20;99.90;;;;;;5046262;28;20068;-70
2022/11/05 01:47:52;;;;;;;34.22;20.20;;;5.20;99.90;;;;;;5064947;28;20131;-71
2022/11/05 01:50:33;;;;;;;39.10;20.85;;;5.20;99.90;;;;;;5048467;28;20039;-71
2022/11/05 01:53:37;;;;;;;32.70;20.55;;;5.30;99.90;;;;;;5049376;28;20039;-70
2022/11/05 01:56:08;;;;;;;33.30;21.88;;;5.30;99.90;;;;;;5059432;28;20048;-71
2022/11/05 01:58:51;;;;;;;37.80;23.35;;;5.30;99.90;;;;;;5047298;28;20041;-71
2022/11/05 02:01:18;;;;;;;36.42;22.42;;;5.40;99.90;;;;;;5045784;28;20085;-71
2022/11/05 02:03:44;;;;;;;32.60;21.70;;;5.40;99.90;;;;;;5047608;28;20471;-71
2022/11/05 02:06:12;;;;;;;35.30;20.27;;;5.40;99.90;;;;;;5061358;28;20040;-71
2022/11/05 02:09:07;;;;;;;37.33;23.48;;;5.40;99.90;;;;;;5066148;28;20149;-71
2022/11/05 02:11:33;;;;;;;38.92;22.70;;;5.30;99.90;;;;;;5045451;28;20036;-71
2022/11/05 02:13:59;;;;;;;43.17;25.60;;;5.30;99.90;;;;;;5065485;28;20107;-71
2022/11/05 02:16:40;;;;;;;40.90;25.83;;;5.30;99.90;;;;;;5063857;28;20031;-71
2022/11/05 02:19:33;;;;;;;35.20;21.40;;;5.30;99.90;;;;;;5065790;28;20036;-71
2022/11/05 02:22:05;;;;;;;34.53;22.23;;;5.30;99.90;;;;;;5064901;28;20103;-71
2022/11/05 02:24:53;;;;;;;35.47;23.23;;;5.40;99.90;;;;;;5065814;28;20029;-71
2022/11/05 02:27:52;;;;;;;38.92;22.67;;;5.40;99.90;;;;;;5065679;28;20032;-71
2022/11/05 02:30:39;;;;;;;37.03;23.40;;;5.40;99.90;;;;;;5065317;28;20488;-71
2022/11/05 02:33:37;;;;;;;35.35;21.10;;;5.40;99.90;;;;;;5048999;28;20036;-71
2022/11/05 02:36:12;;;;;;;37.42;23.50;;;5.30;99.90;;;;;;5066516;28;20032;-71
2022/11/05 02:38:57;;;;;;;35.00;23.27;;;5.40;99.90;;;;;;5064240;28;20108;-71
2022/11/05 02:41:39;;;;;;;32.70;21.55;;;5.40;99.90;;;;;;5065521;28;20056;-71
2022/11/05 02:44:13;;;;;;;32.33;21.67;;;5.40;99.90;;;;;;5063195;28;20031;-71
2022/11/05 02:46:48;;;;;;;27.80;18.95;;;5.30;99.90;;;;;;5065888;28;20107;-71
2022/11/05 02:49:22;;;;;;;31.67;20.63;;;5.30;99.90;;;;;;5066908;28;20483;-71
2022/11/05 02:51:57;;;;;;;33.08;20.10;;;5.20;99.90;;;;;;5063662;28;20088;-71
2022/11/05 02:54:51;;;;;;;29.98;19.38;;;5.20;99.90;;;;;;5064876;28;20032;-71
2022/11/05 02:57:20;;;;;;;33.95;21.10;;;5.20;99.90;;;;;;5064361;28;20043;-71
2022/11/05 02:59:45;;;;;;;40.50;23.92;;;5.10;99.90;;;;;;5064182;28;20513;-71
2022/11/05 03:02:11;;;;;;;37.33;22.55;;;5.10;99.90;;;;;;5047583;28;20028;-71
2022/11/05 03:04:37;;;;;;;36.17;21.95;;;5.00;99.90;;;;;;5047891;28;20181;-71
2022/11/05 03:07:27;;;;;;;32.00;20.40;;;5.00;99.90;;;;;;5064738;28;20055;-71
2022/11/05 03:10:04;;;;;;;36.72;22.58;;;5.00;99.90;;;;;;5043684;28;20682;-71
2022/11/05 03:12:51;;;;;;;39.05;23.75;;;5.00;99.90;;;;;;5062553;28;20051;-71
2022/11/05 03:15:40;;;;;;;36.42;20.40;;;5.00;99.90;;;;;;5065545;28;20044;-71
2022/11/05 03:18:29;;;;;;;27.77;18.17;;;5.00;99.90;;;;;;5060385;28;20121;-71
2022/11/05 03:21:36;;;;;;;27.58;15.93;;;4.90;99.90;;;;;;5050021;28;20048;-71
2022/11/05 03:24:20;;;;;;;31.35;17.05;;;4.90;99.90;;;;;;5051313;28;20036;-71
2022/11/05 03:27:07;;;;;;;20.92;12.80;;;4.90;99.90;;;;;;5059382;28;20699;-71
2022/11/05 03:29:40;;;;;;;29.50;17.00;;;4.90;99.90;;;;;;5063201;28;20483;-71
2022/11/05 03:32:08;;;;;;;26.73;15.65;;;4.80;99.90;;;;;;5059682;28;20872;-71
2022/11/05 03:35:17;;;;;;;25.98;15.65;;;4.80;99.90;;;;;;5046146;28;20024;-71
2022/11/05 03:37:46;;;;;;;29.97;15.73;;;4.80;99.90;;;;;;5064316;28;20494;-71
2022/11/05 03:40:14;;;;;;;29.42;15.57;;;4.80;99.90;;;;;;5046757;28;20161;-70
2022/11/05 03:42:44;;;;;;;21.58;15.63;;;4.90;99.90;;;;;;5064531;28;20170;-71
2022/11/05 03:45:16;;;;;;;26.35;15.30;;;4.90;99.90;;;;;;5063288;28;20037;-71
2022/11/05 03:47:45;;;;;;;24.50;14.48;;;4.90;99.90;;;;;;5064508;28;20122;-71
2022/11/05 03:50:25;;;;;;;32.78;18.65;;;5.00;99.90;;;;;;5049749;28;20037;-71
2022/11/05 03:52:58;;;;;;;;;;;5.00;99.90;;;;;;5069469;28;20043;-70
2022/11/05 03:55:30;;;;;;;33.45;18.80;;;5.00;99.90;;;;;;5050592;28;19912;-71
2022/11/05 03:57:58;;;;;;;31.42;18.10;;;5.00;99.90;;;;;;5065475;28;20072;-71
2022/11/05 04:00:23;;;;;;;29.63;18.48;;;5.00;99.90;;;;;;5066746;28;20105;-71
2022/11/05 04:02:49;;;;;;;33.20;19.13;;;5.00;99.90;;;;;;5069160;28;20099;-71
2022/11/05 04:05:15;;;;;;;32.78;19.08;;;4.90;99.90;;;;;;5067355;28;20056;-71
2022/11/05 04:13:30;;;;;;;32.72;18.92;;;4.90;99.90;;;;;;5023513;28;20033;-71
2022/11/05 04:18:41;;;;;;;34.10;19.90;;;4.90;99.90;;;;;;5043255;28;20043;-71
2022/11/05 04:24:09;;;;;;;33.03;20.52;;;4.90;99.90;;;;;;5068344;28;20035;-71
2022/11/05 04:26:40;;;;;;;36.55;20.52;;;4.90;99.90;;;;;;5049132;28;20592;-71
2022/11/05 04:31:51;;;;;;;32.53;20.02;;;4.90;99.90;;;;;;5068690;28;20181;-71
2022/11/05 04:34:17;;;;;;;30.80;18.75;;;5.00;99.90;;;;;;5064408;28;20421;-71
2022/11/05 04:36:48;;;;;;;31.25;19.20;;;5.00;99.90;;;;;;5065612;28;20036;-71
2022/11/05 04:39:15;;;;;;;37.05;20.10;;;5.10;99.90;;;;;;5066997;28;20803;-71
2022/11/05 04:41:41;;;;;;;31.40;19.67;;;5.10;99.90;;;;;;5066221;28;20025;-71
2022/11/05 04:44:07;;;;;;;33.25;20.00;;;5.10;99.90;;;;;;5050094;28;20063;-71
2022/11/05 04:46:32;;;;;;;33.50;20.40;;;5.10;99.90;;;;;;5067316;28;20724;-71
2022/11/05 04:48:58;;;;;;;34.30;20.10;;;5.10;99.90;;;;;;5069339;28;20040;-71
2022/11/05 04:51:26;;;;;;;29.70;18.17;;;5.20;99.90;;;;;;5050654;28;20035;-71
2022/11/05 04:53:52;;;;;;;30.35;18.83;;;5.20;99.90;;;;;;5038619;28;20047;-71
2022/11/05 04:56:23;;;;;;;33.47;19.63;;;5.20;99.90;;;;;;5068132;28;20041;-71
2022/11/05 04:58:49;;;;;;;30.63;19.30;;;5.20;99.90;;;;;;5068152;28;20036;-71
2022/11/05 05:01:16;;;;;;;31.95;19.13;;;5.30;99.90;;;;;;5067902;28;20094;-71
2022/11/05 05:03:42;;;;;;;29.42;16.45;;;5.30;99.90;;;;;;5062459;28;20028;-71
2022/11/05 05:06:08;;;;;;;21.63;13.88;;;5.30;99.90;;;;;;5054600;28;20101;-71
2022/11/05 05:08:34;;;;;;;27.42;17.77;;;5.20;99.90;;;;;;5067387;28;20485;-71
2022/11/05 05:11:05;;;;;;;26.58;16.30;;;5.20;99.90;;;;;;5065406;28;20405;-71
2022/11/05 05:13:31;;;;;;;33.05;17.35;;;5.20;99.90;;;;;;5047668;28;20032;-71
2022/11/05 05:15:57;;;;;;;31.75;18.52;;;5.20;99.90;;;;;;5066533;28;20043;-71
2022/11/05 05:18:25;;;;;;;29.38;17.40;;;5.20;99.90;;;;;;5065983;28;20039;-71
2022/11/05 05:23:34;;;;;;;31.60;18.10;;;5.40;99.90;;;;;;5065974;28;20032;-71
2022/11/05 05:26:00;;;;;;;30.63;17.70;;;5.40;99.90;;;;;;5065539;28;20036;-71
2022/11/05 05:28:26;;;;;;;33.67;18.92;;;5.40;99.90;;;;;;5066175;28;20024;-71
2022/11/05 05:30:52;;;;;;;31.80;20.42;;;5.40;99.90;;;;;;5049662;28;20033;-71
2022/11/05 05:33:18;;;;;;;31.17;17.48;;;5.40;99.90;;;;;;5047423;28;20821;-71
2022/11/05 05:35:44;;;;;;;24.13;15.90;;;5.40;99.90;;;;;;5049476;28;20046;-71
2022/11/05 05:38:09;;;;;;;27.17;15.25;;;5.40;99.90;;;;;;5063622;28;20559;-71
2022/11/05 05:40:35;;;;;;;23.42;14.65;;;5.30;99.90;;;;;;5061610;28;20112;-71
2022/11/05 05:43:00;;;;;;;25.65;15.07;;;5.30;99.90;;;;;;5064602;28;20067;-71
2022/11/05 05:45:26;;;;;;;26.42;16.10;;;5.30;99.90;;;;;;5066016;28;20530;-72
2022/11/05 05:47:55;;;;;;;30.75;18.00;;;5.20;99.90;;;;;;5066947;28;20040;-71
2022/11/05 05:50:20;;;;;;;32.47;18.00;;;5.20;99.90;;;;;;5047963;28;20028;-71
2022/11/05 05:52:46;;;;;;;24.83;13.90;;;5.20;99.90;;;;;;5066569;28;20063;-71
2022/11/05 05:55:11;;;;;;;23.85;13.45;;;5.20;99.90;;;;;;5046024;28;20024;-71
2022/11/05 05:57:37;;;;;;;21.08;12.52;;;5.30;99.90;;;;;;5065237;28;20075;-71
2022/11/05 06:00:04;;;;;;;23.08;13.73;;;5.30;99.90;;;;;;5066883;28;20394;-71
2022/11/05 06:02:30;;;;;;;20.88;12.18;;;5.30;99.90;;;;;;5063943;28;20028;-71
2022/11/05 06:04:56;;;;;;;19.92;12.38;;;5.20;99.90;;;;;;5066403;28;20044;-71
2022/11/05 06:07:22;;;;;;;22.30;12.10;;;5.30;99.90;;;;;;5047591;28;20032;-71
2022/11/05 06:09:47;;;;;;;18.42;11.88;;;5.30;99.90;;;;;;5048452;28;20040;-71
2022/11/05 06:12:13;;;;;;;23.13;12.52;;;5.30;99.90;;;;;;5062305;28;20114;-71
2022/11/05 06:14:38;;;;;;;18.70;11.93;;;5.30;99.90;;;;;;5065002;28;20597;-71
2022/11/05 06:17:05;;;;;;;18.67;11.43;;;5.30;99.90;;;;;;5064045;28;20049;-71
2022/11/05 06:19:31;;;;;;;20.63;11.65;;;5.40;99.90;;;;;;5064415;28;20068;-71
2022/11/05 06:21:57;;;;;;;19.60;11.40;;;5.40;99.90;;;;;;5047371;28;20080;-71
2022/11/05 06:24:22;;;;;;;19.90;11.88;;;5.40;99.90;;;;;;5065396;28;20560;-71
2022/11/05 06:26:48;;;;;;;17.10;10.70;;;5.40;99.90;;;;;;5064959;28;20551;-71
2022/11/05 06:29:13;;;;;;;17.73;11.18;;;5.50;99.90;;;;;;5047727;28;20025;-71
2022/11/05 06:31:39;;;;;;;19.60;11.55;;;5.50;99.90;;;;;;5063695;28;20485;-70
2022/11/05 06:34:05;;;;;;;19.60;11.13;;;5.50;99.90;;;;;;5062926;28;20036;-71
2022/11/05 06:36:30;;;;;;;21.83;11.57;;;5.60;99.90;;;;;;5065116;28;20033;-71
2022/11/05 06:38:56;;;;;;;19.10;11.73;;;5.60;99.90;;;;;;5061830;28;20112;-71
2022/11/05 06:41:21;;;;;;;19.27;11.73;;;5.60;99.90;;;;;;5066047;28;20039;-71
2022/11/05 06:43:47;;;;;;;18.27;11.48;;;5.60;99.90;;;;;;5045437;28;20137;-71
2022/11/05 06:46:13;;;;;;;20.27;12.15;;;5.70;99.90;;;;;;5064270;28;20504;-71
2022/11/05 06:48:39;;;;;;;19.58;10.70;;;5.70;99.90;;;;;;5064000;28;20093;-71
2022/11/05 06:51:06;;;;;;;20.13;11.32;;;5.70;99.90;;;;;;5066534;28;20033;-71
2022/11/05 06:53:33;;;;;;;18.00;10.63;;;5.70;99.90;;;;;;5047769;28;20044;-71
2022/11/05 06:56:03;;;;;;;19.00;10.80;;;5.70;99.90;;;;;;5056659;28;20037;-71
2022/11/05 06:58:29;;;;;;;17.58;10.55;;;5.80;99.90;;;;;;5065464;28;20548;-71
2022/11/05 07:00:59;;;;;;;21.83;11.73;;;5.80;99.90;;;;;;5064830;28;20094;-71
2022/11/05 07:03:25;;;;;;;;;;;5.70;99.90;;;;;;5066548;28;20036;-71
2022/11/05 07:05:51;;;;;;;21.05;11.52;;;5.80;99.90;;;;;;5063932;28;20388;-71
2022/11/05 07:08:16;;;;;;;19.23;10.65;;;5.80;99.90;;;;;;5066426;28;20036;-71
2022/11/05 07:10:42;;;;;;;22.02;11.27;;;5.80;99.90;;;;;;5065661;28;20032;-71
2022/11/05 07:13:07;;;;;;;17.48;10.75;;;5.80;99.90;;;;;;5063222;28;20028;-71
2022/11/05 07:15:33;;;;;;;14.35;10.05;;;5.80;99.90;;;;;;5038297;28;20024;-71
2022/11/05 07:18:00;;;;;;;17.10;10.10;;;5.90;99.90;;;;;;5057863;28;20048;-71
2022/11/05 07:20:26;;;;;;;17.75;10.30;;;5.90;99.90;;;;;;5060660;28;20029;-71
2022/11/05 07:23:00;;;;;;;16.52;10.13;;;5.90;99.90;;;;;;5059577;28;20039;-71
2022/11/05 07:25:26;;;;;;;18.35;10.38;;;6.00;99.90;;;;;;5049258;28;20091;-71
2022/11/05 07:27:51;;;;;;;16.38;10.18;;;6.00;99.90;;;;;;5064976;28;20032;-71
2022/11/05 07:30:17;;;;;;;17.85;10.50;;;6.00;99.90;;;;;;5045697;28;20505;-71
2022/11/05 07:32:42;;;;;;;19.20;9.90;;;6.00;99.90;;;;;;5065930;28;20032;-71
2022/11/05 07:35:08;;;;;;;17.40;10.43;;;6.10;99.90;;;;;;5046610;28;20036;-69
2022/11/05 07:37:42;;;;;;;16.77;10.30;;;6.10;99.90;;;;;;5059627;28;20033;-70
2022/11/05 07:40:09;;;;;;;17.08;11.20;;;6.10;99.90;;;;;;5063224;28;20167;-72
2022/11/05 07:42:35;;;;;;;13.02;8.00;;;6.20;99.90;;;;;;5065222;28;20674;-72
2022/11/05 07:45:00;;;;;;;14.88;9.57;;;6.30;99.90;;;;;;5047228;28;20123;-71
2022/11/05 07:47:26;;;;;;;14.43;7.90;;;6.20;99.90;;;;;;5065721;28;20546;-71
2022/11/05 07:49:51;;;;;;;15.55;10.00;;;6.30;99.90;;;;;;5047543;28;20646;-71
2022/11/05 07:52:17;;;;;;;16.48;10.38;;;6.30;99.90;;;;;;5046792;28;20082;-71
2022/11/05 07:54:42;;;;;;;16.17;9.18;;;6.30;99.90;;;;;;5042685;28;20119;-71
2022/11/05 07:57:08;;;;;;;14.48;10.10;;;6.30;99.90;;;;;;5064279;28;20048;-71
2022/11/05 07:59:33;;;;;;;14.57;10.55;;;6.30;99.90;;;;;;5043550;28;20039;-71
2022/11/05 08:01:59;;;;;;;18.08;9.98;;;6.30;99.90;;;;;;5064925;28;20076;-71
2022/11/05 08:04:25;;;;;;;13.40;8.10;;;6.40;99.90;;;;;;5065335;28;20174;-71
2022/11/05 08:06:50;;;;;;;15.60;8.35;;;6.50;99.90;;;;;;5065617;28;20041;-71
2022/11/05 08:09:16;;;;;;;14.70;9.05;;;6.50;99.90;;;;;;5063874;28;20031;-71
2022/11/05 08:11:41;;;;;;;15.52;9.10;;;6.60;99.90;;;;;;5060493;28;20478;-71
2022/11/05 08:14:07;;;;;;;16.60;9.32;;;6.60;99.90;;;;;;5063168;28;20143;-71
2022/11/05 08:16:32;;;;;;;16.30;9.38;;;6.70;99.90;;;;;;5060811;28;20060;-71
2022/11/05 08:18:58;;;;;;;16.02;9.15;;;6.70;99.90;;;;;;5065568;28;20024;-72
2022/11/05 08:21:23;;;;;;;15.57;9.88;;;6.70;99.90;;;;;;5066573;28;20025;-70
2022/11/05 08:23:49;;;;;;;13.68;9.75;;;6.80;99.90;;;;;;5049212;28;20041;-71
2022/11/05 08:26:15;;;;;;;14.13;9.13;;;6.80;99.90;;;;;;5065035;28;20037;-71
2022/11/05 08:28:40;;;;;;;15.00;9.45;;;6.80;99.90;;;;;;5064597;28;20740;-71
2022/11/05 08:31:06;;;;;;;14.90;9.45;;;6.80;99.90;;;;;;5062175;28;20070;-72
2022/11/05 08:33:33;;;;;;;14.95;9.50;;;6.90;99.90;;;;;;5063696;28;20029;-71
2022/11/05 08:36:04;;;;;;;16.50;9.88;;;6.90;99.90;;;;;;5065891;28;20103;-70
2022/11/05 08:38:30;;;;;;;17.13;9.88;;;6.90;99.90;;;;;;5059080;28;20441;-70
2022/11/05 08:40:57;;;;;;;16.55;10.38;;;6.90;99.90;;;;;;5066678;28;20574;-71
2022/11/05 08:43:23;;;;;;;17.23;10.20;;;7.00;99.90;;;;;;5068047;28;20110;-71
2022/11/05 08:45:49;;;;;;;19.27;10.88;;;7.10;99.90;;;;;;5066699;28;20498;-71
2022/11/05 08:48:16;;;;;;;21.75;12.20;;;7.10;99.90;;;;;;5064706;28;20025;-71
2022/11/05 08:50:43;;;;;;;24.27;12.88;;;7.20;99.90;;;;;;5067936;28;20021;-71
2022/11/05 08:53:08;;;;;;;21.83;10.95;;;7.20;99.90;;;;;;5066066;28;20032;-73
2022/11/05 08:55:35;;;;;;;22.05;12.85;;;7.30;99.90;;;;;;5064421;28;20035;-72
2022/11/05 08:58:03;;;;;;;21.58;12.73;;;7.30;99.90;;;;;;5065585;28;20062;-71
2022/11/05 09:00:31;;;;;;;22.85;13.55;;;7.40;99.90;;;;;;5066498;28;20549;-71
2022/11/05 09:02:59;;;;;;;19.52;11.23;;;7.40;99.90;;;;;;5063648;28;20041;-71
2022/11/05 09:05:26;;;;;;;18.02;10.32;;;7.50;99.90;;;;;;5053608;28;20425;-72
2022/11/05 09:07:51;;;;;;;15.52;9.32;;;7.50;99.90;;;;;;5044705;28;20557;-71
2022/11/05 09:10:17;;;;;;;15.05;8.48;;;7.60;99.90;;;;;;5047629;28;20120;-72
2022/11/05 09:12:42;;;;;;;17.05;8.43;;;7.60;99.90;;;;;;5049575;28;20114;-71
2022/11/05 09:15:10;;;;;;;15.13;8.27;;;7.70;99.90;;;;;;5069366;28;20112;-72
2022/11/05 09:17:35;;;;;;;14.55;8.40;;;7.80;99.90;;;;;;5065356;28;20040;-71
2022/11/05 09:20:05;;;;;;;14.00;8.38;;;7.90;99.90;;;;;;5064437;28;20090;-71
2022/11/05 09:22:31;;;;;;;18.55;9.07;;;8.00;99.90;;;;;;5059163;28;20025;-70
2022/11/05 09:24:57;;;;;;;18.48;7.95;;;8.20;99.90;;;;;;5049372;28;20407;-71
2022/11/05 09:27:22;;;;;;;14.38;7.90;;;8.30;99.90;;;;;;5067913;28;20043;-72
2022/11/05 09:29:48;;;;;;;13.73;7.35;;;8.40;99.90;;;;;;5067125;28;20032;-71
2022/11/05 09:32:17;;;;;;;12.60;7.78;;;8.60;99.90;;;;;;5067189;28;20032;-71
2022/11/05 09:34:43;;;;;;;14.88;7.70;;;8.70;99.90;;;;;;5068664;28;20496;-72
2022/11/05 09:37:09;;;;;;;12.88;7.40;;;8.90;99.90;;;;;;5058476;28;20041;-72
2022/11/05 09:39:35;;;;;;;13.18;7.47;;;9.00;99.90;;;;;;5063438;28;20054;-71
2022/11/05 09:42:07;;;;;;;17.08;8.48;;;9.20;99.90;;;;;;5065003;28;20381;-72
2022/11/05 09:44:46;;;;;;;17.42;7.15;;;9.30;99.90;;;;;;5064562;28;20368;-71
2022/11/05 09:47:23;;;;;;;11.67;6.23;;;9.40;99.90;;;;;;5057830;28;20037;-72
2022/11/05 09:49:53;;;;;;;12.93;6.45;;;9.50;99.90;;;;;;5066278;28;20285;-72
2022/11/05 09:52:23;;;;;;;9.88;6.10;;;9.60;99.90;;;;;;5067176;28;20036;-72
2022/11/05 09:54:49;;;;;;;13.75;6.25;;;9.70;99.90;;;;;;5045711;28;20052;-72
2022/11/05 09:57:55;;;;;;;8.18;4.80;;;9.80;99.90;;;;;;5054571;28;20973;-72
2022/11/05 10:00:20;;;;;;;9.27;5.57;;;9.90;99.90;;;;;;5059426;28;20853;-71
2022/11/05 10:02:57;;;;;;;11.82;6.35;;;9.90;99.90;;;;;;5066725;28;20031;-71
2022/11/05 10:05:24;;;;;;;13.07;6.45;;;9.90;99.90;;;;;;5065288;28;22048;-72
2022/11/05 10:07:56;;;;;;;14.32;5.43;;;10.00;99.90;;;;;;5067553;28;20138;-72
2022/11/05 10:10:42;;;;;;;14.30;4.70;;;10.10;99.90;;;;;;5048577;28;20024;-71
2022/11/05 10:13:16;;;;;;;11.07;2.13;;;10.20;99.90;;;;;;5044515;28;20134;-72
2022/11/05 10:15:56;;;;;;;7.78;1.10;;;10.40;99.90;;;;;;5067195;28;20067;-72
2022/11/05 10:18:36;;;;;;;8.73;1.10;;;10.80;99.90;;;;;;5048533;28;20731;-72
2022/11/05 10:21:02;;;;;;;;;;;11.10;99.90;;;;;;5048784;28;20037;-72
2022/11/05 10:23:28;;;;;;;9.60;1.45;;;11.30;99.90;;;;;;5067709;28;19912;-72
2022/11/05 10:25:59;;;;;;;8.65;1.55;;;11.40;99.90;;;;;;5067532;28;20102;-73
2022/11/05 10:28:27;;;;;;;12.88;2.28;;;11.60;99.90;;;;;;5063336;28;20775;-73
2022/11/05 10:30:59;;;;;;;8.18;1.48;;;11.70;99.90;;;;;;5040351;28;20709;-72
2022/11/05 10:33:45;;;;;;;12.27;1.70;;;11.80;99.90;;;;;;5065393;28;20024;-73
2022/11/05 10:36:24;;;;;;;8.57;1.67;;;12.00;99.90;;;;;;5053030;28;20040;-73
2022/11/05 10:38:52;;;;;;;12.05;1.30;;;12.10;99.90;;;;;;5060784;28;20032;-74
2022/11/05 10:41:51;;;;;;;9.50;1.80;;;12.10;99.90;;;;;;5066858;28;20044;-74
2022/11/05 10:44:26;;;;;;;12.93;1.58;;;12.10;99.90;;;;;;5064457;28;20028;-73
2022/11/05 10:47:29;;;;;;;7.93;1.38;;;12.10;99.90;;;;;;5058838;28;20501;-74
2022/11/05 10:50:14;;;;;;;12.30;1.45;;;12.20;99.90;;;;;;5065722;28;20793;-73
2022/11/05 10:53:14;;;;;;;12.27;1.75;;;12.20;99.90;;;;;;5033085;28;20086;-74
2022/11/05 10:55:46;;;;;;;10.15;1.40;;;12.20;99.90;;;;;;5066959;28;20054;-73
2022/11/05 10:58:15;;;;;;;8.65;1.92;;;12.30;99.90;;;;;;5059876;28;20582;-73
2022/11/05 11:00:45;;;;;;;8.02;1.40;;;12.30;99.90;;;;;;5064409;28;20491;-74
2022/11/05 11:03:29;;;;;;;;;;;12.30;99.90;;;;;;5061112;28;20028;-73
2022/11/05 11:06:04;;;;;;;12.15;1.65;;;12.30;99.90;;;;;;5068942;28;19920;-74
2022/11/05 11:08:32;;;;;;;8.13;1.10;;;12.30;99.90;;;;;;5067055;28;20033;-76
2022/11/05 11:11:01;;;;;;;7.18;1.30;;;12.40;99.90;;;;;;5049466;28;20618;-74
2022/11/05 11:13:47;;;;;;;8.85;1.08;;;12.40;99.90;;;;;;5066502;28;20040;-74
2022/11/05 11:16:24;;;;;;;5.78;1.00;;;12.30;99.90;;;;;;5066635;28;20135;-77
2022/11/05 11:18:55;;;;;;;6.38;1.00;;;12.30;99.90;;;;;;5061241;28;20029;-75
2022/11/05 11:21:22;;;;;;;4.90;0.80;;;12.20;99.90;;;;;;5065872;28;20032;-74
2022/11/05 11:23:56;;;;;;;3.53;0.80;;;12.20;99.90;;;;;;5066325;28;20032;-74
2022/11/05 11:26:37;;;;;;;8.35;1.20;;;12.30;99.90;;;;;;5065402;28;20036;-74
2022/11/05 11:29:16;;;;;;;8.57;1.33;;;12.30;99.90;;;;;;5065142;28;20028;-74
2022/11/05 11:31:42;;;;;;;7.80;1.23;;;12.20;99.90;;;;;;5048466;28;20035;-73
2022/11/05 11:34:51;;;;;;;8.93;1.40;;;12.20;99.90;;;;;;5067053;28;20041;-73
2022/11/05 11:37:20;;;;;;;14.80;1.88;;;12.20;99.90;;;;;;5004003;28;20038;-72
2022/11/05 11:40:07;;;;;;;11.18;1.40;;;12.30;99.90;;;;;;4987866;28;20799;-72
2022/11/05 11:42:37;;;;;;;7.82;1.70;;;12.30;99.90;;;;;;5010980;28;20394;-73
2022/11/05 11:45:14;;;;;;;9.18;1.80;;;12.40;99.90;;;;;;5039746;28;20098;-73
2022/11/05 11:47:44;;;;;;;8.85;1.65;;;12.50;99.90;;;;;;5047350;28;20044;-73
2022/11/05 11:50:35;;;;;;;8.95;1.58;;;12.50;99.90;;;;;;5066141;28;20184;-73
2022/11/05 11:53:19;;;;;;;10.27;1.90;;;12.60;99.90;;;;;;5039976;28;20032;-72
2022/11/05 11:56:10;;;;;;;11.98;1.95;;;12.60;99.90;;;;;;5066051;28;20031;-73
2022/11/05 11:58:49;;;;;;;12.40;2.08;;;12.60;99.90;;;;;;5047761;28;20105;-72
2022/11/05 12:01:53;;;;;;;8.20;1.70;;;12.60;99.90;;;;;;5066219;28;20492;-73
2022/11/05 12:04:51;;;;;;;11.98;2.00;;;12.60;99.90;;;;;;5064038;28;20504;-73
2022/11/05 12:07:26;;;;;;;12.13;1.80;;;12.50;99.90;;;;;;5046084;28;20445;-74
2022/11/05 12:10:19;;;;;;;7.97;1.42;;;12.60;99.90;;;;;;5067353;28;20032;-73
2022/11/05 12:13:17;;;;;;;13.23;1.92;;;12.60;99.90;;;;;;5067436;28;20043;-73
2022/11/05 12:16:11;;;;;;;16.45;2.20;;;12.60;99.90;;;;;;5059809;28;20047;-73
2022/11/05 12:19:01;;;;;;;15.77;2.15;;;12.70;99.90;;;;;;5060939;28;20079;-73
2022/11/05 12:21:52;;;;;;;15.45;2.40;;;12.80;99.90;;;;;;5049395;28;20040;-73
2022/11/05 12:24:54;;;;;;;16.42;2.15;;;12.80;99.90;;;;;;5050028;28;20090;-73
2022/11/05 12:27:37;;;;;;;12.20;2.28;;;12.70;99.90;;;;;;5065163;28;20028;-74
2022/11/05 12:30:35;;;;;;;12.90;2.45;;;12.60;99.90;;;;;;5069007;28;20042;-72
2022/11/05 12:33:15;;;;;;;12.30;2.13;;;12.60;99.90;;;;;;5057391;28;20599;-73
2022/11/05 12:35:56;;;;;;;13.38;2.40;;;12.50;99.90;;;;;;5061361;28;20030;-73
2022/11/05 12:38:44;;;;;;;12.63;2.72;;;12.50;99.90;;;;;;5043324;28;20063;-73
2022/11/05 12:41:16;;;;;;;10.00;1.90;;;12.40;99.90;;;;;;5052055;28;20032;-72
2022/11/05 12:44:02;;;;;;;13.43;2.58;;;12.30;99.90;;;;;;5068991;28;20043;-72
2022/11/05 12:47:05;;;;;;;14.48;2.75;;;12.10;99.90;;;;;;5057554;28;20029;-73
2022/11/05 12:49:31;;;;;;;13.20;2.05;;;12.00;99.90;;;;;;5032091;28;20026;-73
2022/11/05 12:52:25;;;;;;;13.18;3.00;;;11.90;99.90;;;;;;5062256;28;20042;-72
2022/11/05 12:54:57;;;;;;;16.80;2.45;;;12.00;99.90;;;;;;5069288;28;20024;-73
2022/11/05 12:57:24;;;;;;;15.93;2.70;;;12.00;99.90;;;;;;5046481;28;20405;-73
2022/11/05 13:00:07;;;;;;;17.45;2.50;;;12.10;99.90;;;;;;5060880;28;20497;-73
2022/11/05 13:02:59;;;;;;;9.68;2.03;;;12.10;99.90;;;;;;5054827;28;20493;-75
2022/11/05 13:05:42;;;;;;;19.13;3.20;;;12.10;99.90;;;;;;5058728;28;20056;-73
2022/11/05 13:08:17;;;;;;;12.10;1.85;;;12.10;99.90;;;;;;5046688;28;20454;-73
2022/11/05 13:10:52;;;;;;;9.88;1.88;;;12.10;99.90;;;;;;5051169;28;20113;-72
2022/11/05 13:13:37;;;;;;;16.80;2.85;;;12.10;99.90;;;;;;5065518;28;20111;-73
2022/11/05 13:16:12;;;;;;;12.32;2.33;;;12.20;99.90;;;;;;5070099;28;20038;-74
2022/11/05 13:18:55;;;;;;;17.92;4.70;;;12.20;99.90;;;;;;5051141;28;20024;-72
2022/11/05 13:21:23;;;;;;;12.02;2.88;;;12.30;99.90;;;;;;5067959;28;20078;-73
2022/11/05 13:23:58;;;;;;;17.80;3.47;;;12.30;99.90;;;;;;5057136;28;20037;-72
2022/11/05 13:26:37;;;;;;;15.85;2.95;;;12.30;99.90;;;;;;5069650;28;20490;-73
2022/11/05 13:29:08;;;;;;;17.38;3.78;;;12.50;99.90;;;;;;5068439;28;20111;-74
2022/11/05 13:31:40;;;;;;;17.35;3.53;;;12.50;99.90;;;;;;5050401;28;20117;-73
2022/11/05 13:34:11;;;;;;;16.33;3.10;;;12.50;99.90;;;;;;5051211;28;20120;-72
2022/11/05 13:39:49;;;;;;;13.95;2.83;;;12.60;99.90;;;;;;5068278;28;20059;-74
2022/11/05 13:42:36;;;;;;;14.73;2.95;;;12.70;99.90;;;;;;5050038;28;20060;-73
2022/11/05 13:45:20;;;;;;;12.60;2.60;;;12.70;99.90;;;;;;5066731;28;20036;-73
2022/11/05 13:48:09;;;;;;;20.05;3.05;;;12.70;99.90;;;;;;5068165;28;20032;-72
2022/11/05 13:50:50;;;;;;;17.90;3.60;;;12.70;99.90;;;;;;5069262;28;20024;-74